Time;durP1;ratioP1;P1;durP2;ratioP2;P2;SDS_P1;SDS_P2;PMS_P1;PMS_P2;Temp;Humidity;BMP_temperature;BMP_pressure;BME280_temperature;BME280_humidity;BME280_pressure;Samples;Min_cycle;Max_cycle;Signal;HPM_P1;HPM_P2
2022/03/22 00:01:38;;;;;;;23.17;13.30;;;4.50;85.00;;;;;;6217630;23;20019;-85
2022/03/22 00:04:05;;;;;;;21.30;12.70;;;4.50;85.60;;;;;;6228846;23;20031;-82
2022/03/22 00:06:31;;;;;;;22.92;12.77;;;4.50;84.70;;;;;;6228096;23;20039;-80
2022/03/22 00:08:57;;;;;;;20.88;12.35;;;4.50;86.10;;;;;;6228659;23;20012;-80
2022/03/22 00:11:23;;;;;;;23.98;13.57;;;4.50;85.30;;;;;;6227967;23;20004;-82
2022/03/22 00:13:50;;;;;;;24.15;13.30;;;4.50;85.60;;;;;;6228281;23;19996;-79
2022/03/22 00:16:20;;;;;;;23.40;13.80;;;4.50;85.70;;;;;;6226959;23;20004;-83
2022/03/22 00:18:47;;;;;;;24.10;13.93;;;4.50;86.50;;;;;;6228751;23;20055;-82
2022/03/22 00:21:17;;;;;;;26.35;13.23;;;4.50;86.60;;;;;;6227952;23;20007;-81
2022/03/22 00:23:43;;;;;;;22.50;13.77;;;4.40;86.90;;;;;;6229280;23;20008;-81
2022/03/22 00:26:09;;;;;;;22.30;12.70;;;4.40;86.60;;;;;;6203083;23;20202;-84
2022/03/22 00:28:35;;;;;;;23.95;13.40;;;4.40;87.10;;;;;;6203980;23;20008;-84
2022/03/22 00:31:02;;;;;;;22.20;12.55;;;4.40;86.90;;;;;;6228021;23;20004;-80
2022/03/22 00:33:28;;;;;;;22.38;12.70;;;4.30;86.50;;;;;;6228373;23;20067;-83
2022/03/22 00:35:54;;;;;;;20.20;12.02;;;4.30;86.40;;;;;;6229040;23;20274;-80
2022/03/22 00:38:20;;;;;;;22.25;13.63;;;4.30;86.50;;;;;;6203296;23;20277;-82
2022/03/22 00:40:46;;;;;;;23.92;12.82;;;4.30;86.20;;;;;;6203916;23;20000;-81
2022/03/22 00:43:13;;;;;;;22.27;13.00;;;4.20;86.10;;;;;;6228997;23;20004;-80
2022/03/22 00:45:40;;;;;;;21.67;12.43;;;4.20;85.90;;;;;;6235350;23;20004;-79
2022/03/22 00:48:08;;;;;;;23.70;13.43;;;4.20;85.80;;;;;;6239866;22;20020;-81
2022/03/22 00:50:40;;;;;;;23.48;13.23;;;4.10;86.40;;;;;;6245358;23;20030;-80
2022/03/22 00:53:10;;;;;;;22.88;13.00;;;4.10;87.60;;;;;;6245944;22;20023;-81
2022/03/22 00:55:37;;;;;;;21.33;12.75;;;4.10;87.40;;;;;;6229810;23;20008;-82
2022/03/22 00:58:03;;;;;;;21.20;12.27;;;4.10;87.70;;;;;;6246619;22;20034;-80
2022/03/22 01:00:30;;;;;;;25.23;12.30;;;4.10;87.70;;;;;;6257626;22;20015;-83
2022/03/22 06:02:19;;;;;;;25.77;15.07;;;2.00;91.90;;;;;;6214289;22;20075;-81
2022/03/22 06:04:45;;;;;;;22.45;13.38;;;2.20;91.60;;;;;;6256306;23;20027;-83
2022/03/22 06:07:11;;;;;;;26.00;14.95;;;2.30;91.60;;;;;;6254751;23;20059;-83
2022/03/22 06:09:37;;;;;;;25.17;14.57;;;2.40;91.60;;;;;;6254553;23;20120;-87
2022/03/22 06:12:06;;;;;;;24.92;14.65;;;2.50;91.40;;;;;;6252793;23;19992;-85
2022/03/22 06:14:32;;;;;;;23.50;13.77;;;2.50;91.20;;;;;;6252099;23;20004;-84
2022/03/22 06:16:57;;;;;;;26.60;14.35;;;2.70;90.80;;;;;;6160712;23;20228;-87
2022/03/22 06:19:23;;;;;;;25.27;14.45;;;2.80;90.70;;;;;;6137274;23;20199;-82
2022/03/22 06:21:49;;;;;;;23.98;14.27;;;3.00;90.40;;;;;;6138907;23;20056;-85
2022/03/22 06:24:15;;;;;;;23.60;14.30;;;3.00;90.40;;;;;;6137670;23;20199;-82
2022/03/22 06:26:41;;;;;;;26.60;14.18;;;3.10;90.00;;;;;;6136251;23;20017;-82
2022/03/22 06:29:07;;;;;;;24.25;14.25;;;3.20;89.80;;;;;;6136648;23;20103;-79
2022/03/22 06:31:34;;;;;;;23.27;14.20;;;3.30;89.60;;;;;;6160778;23;20014;-80
2022/03/22 06:34:01;;;;;;;30.63;15.93;;;3.40;89.80;;;;;;6112352;23;20013;-82
2022/03/22 06:36:28;;;;;;;22.85;13.43;;;3.50;89.40;;;;;;6137057;23;20032;-82
2022/03/22 06:38:54;;;;;;;23.98;15.02;;;3.50;89.10;;;;;;6137080;23;20283;-80
2022/03/22 06:45:20;;;;;;;25.42;13.45;;;3.60;88.10;;;;;;6072037;23;20013;-83
2022/03/22 06:47:46;;;;;;;23.25;14.15;;;3.80;87.80;;;;;;6073909;23;20006;-81
2022/03/22 06:50:16;;;;;;;22.02;13.38;;;3.90;87.70;;;;;;6131659;23;20374;-81
2022/03/22 06:52:42;;;;;;;23.00;13.07;;;4.10;87.50;;;;;;6107044;23;20006;-82
2022/03/22 06:55:11;;;;;;;26.67;13.95;;;4.30;86.70;;;;;;6107493;23;20037;-82
2022/03/22 06:57:38;;;;;;;26.25;14.05;;;4.50;86.20;;;;;;6131771;23;20148;-82
2022/03/22 07:00:14;;;;;;;30.75;14.55;;;4.60;85.10;;;;;;6072574;23;20285;-82
2022/03/22 07:02:48;;;;;;;28.35;16.30;;;4.70;85.10;;;;;;6059003;23;20023;-82
2022/03/22 07:05:27;;;;;;;24.73;14.57;;;4.90;84.60;;;;;;6021437;23;20070;-82
2022/03/22 07:08:36;;;;;;;25.63;14.60;;;5.00;84.60;;;;;;6025641;23;20011;-81
2022/03/22 07:14:26;;;;;;;25.17;14.52;;;5.20;82.30;;;;;;6050900;23;20058;-83
2022/03/22 08:29:03;;;;;;;22.42;14.02;;;8.20;71.70;;;;;;6223293;22;20031;-82
2022/03/22 08:32:38;;;;;;;26.08;13.85;;;8.30;71.50;;;;;;6258967;22;20012;-82
2022/03/22 08:35:05;;;;;;;23.67;13.90;;;8.50;71.20;;;;;;6259031;22;20059;-80
2022/03/22 08:37:38;;;;;;;25.30;14.10;;;8.70;70.90;;;;;;6259084;22;20034;-79
2022/03/22 08:40:20;;;;;;;23.75;14.57;;;8.90;70.20;;;;;;6258680;22;20053;-78
2022/03/22 08:42:47;;;;;;;28.25;14.60;;;9.00;69.70;;;;;;6257179;22;20056;-81
2022/03/22 08:45:37;;;;;;;21.98;14.02;;;9.00;68.90;;;;;;6257860;22;20004;-82
2022/03/22 08:52:38;;;;;;;24.38;14.40;;;9.30;68.50;;;;;;6285839;22;20056;-82
2022/03/22 08:56:03;;;;;;;21.20;13.60;;;9.40;68.30;;;;;;6162341;23;20009;-81
2022/03/22 08:58:37;;;;;;;25.73;14.23;;;9.60;68.00;;;;;;6055317;23;20012;-81
2022/03/22 09:01:11;;;;;;;26.65;13.85;;;9.70;68.00;;;;;;6135803;23;20017;-79
2022/03/22 09:06:50;;;;;;;25.15;14.68;;;9.80;68.20;;;;;;6107245;23;20013;-84
2022/03/22 09:09:51;;;;;;;23.27;14.40;;;9.90;67.80;;;;;;6113614;23;20009;-82
2022/03/22 09:12:17;;;;;;;21.25;13.05;;;10.10;68.10;;;;;;6132543;23;20006;-81
2022/03/22 09:14:43;;;;;;;25.48;14.70;;;10.20;68.20;;;;;;6108021;23;20030;-81
2022/03/22 09:17:08;;;;;;;24.38;13.10;;;10.20;67.90;;;;;;6132188;23;20111;-80
2022/03/22 09:19:49;;;;;;;25.30;13.80;;;10.40;67.90;;;;;;6132606;23;20297;-83
2022/03/22 09:22:15;;;;;;;22.52;14.15;;;10.50;67.80;;;;;;6133053;23;20010;-82
2022/03/22 09:24:41;;;;;;;21.35;13.77;;;10.70;68.00;;;;;;6132328;23;20121;-82
2022/03/22 09:27:07;;;;;;;23.55;15.02;;;10.90;67.90;;;;;;6108287;23;19998;-80
2022/03/22 09:29:32;;;;;;;27.90;14.93;;;11.10;67.40;;;;;;6108168;23;20024;-81
2022/03/22 09:32:05;;;;;;;23.33;15.23;;;11.30;66.70;;;;;;6224417;23;20016;-81
2022/03/22 09:34:58;;;;;;;28.17;15.80;;;11.20;67.50;;;;;;6232716;23;20235;-80
2022/03/22 09:41:30;;;;;;;26.83;15.32;;;11.70;67.30;;;;;;6254435;23;20242;-81
2022/03/22 09:43:57;;;;;;;27.23;15.18;;;11.90;66.40;;;;;;6227117;23;20011;-79
2022/03/22 09:46:22;;;;;;;30.60;16.08;;;12.00;66.00;;;;;;6202176;23;20058;-79
2022/03/22 09:48:49;;;;;;;27.33;15.18;;;12.10;65.20;;;;;;6201185;23;20197;-81
2022/03/22 09:57:49;;;;;;;22.77;14.15;;;12.40;64.50;;;;;;6221567;23;20321;-78
2022/03/22 10:00:23;;;;;;;25.85;15.52;;;12.60;64.60;;;;;;6171791;23;20092;-79
2022/03/22 10:02:54;;;;;;;24.73;14.85;;;12.70;64.00;;;;;;6194747;23;20023;-79
2022/03/22 10:05:26;;;;;;;22.77;13.60;;;12.70;63.30;;;;;;6172253;23;20009;-79
2022/03/22 10:08:00;;;;;;;24.90;14.20;;;12.80;63.60;;;;;;6171570;23;20008;-80
2022/03/22 10:10:30;;;;;;;23.50;14.20;;;12.90;63.60;;;;;;6196898;23;20031;-80
2022/03/22 10:12:58;;;;;;;22.20;14.88;;;12.90;63.00;;;;;;6196306;23;20004;-79
2022/03/22 10:15:36;;;;;;;25.38;14.88;;;13.10;63.00;;;;;;6195663;23;20286;-79
2022/03/22 10:18:27;;;;;;;23.02;14.77;;;13.10;62.00;;;;;;6196650;23;20022;-80
2022/03/22 10:21:02;;;;;;;25.50;13.70;;;13.30;61.40;;;;;;6195532;23;20008;-81
2022/03/22 10:23:30;;;;;;;22.23;14.30;;;13.40;60.70;;;;;;6195468;23;20199;-81
2022/03/22 10:26:07;;;;;;;27.20;14.27;;;13.50;59.20;;;;;;6171290;23;20016;-82
2022/03/22 10:36:15;;;;;;;21.42;13.68;;;13.80;58.20;;;;;;6161210;23;20386;-80
2022/03/22 10:38:51;;;;;;;24.58;14.52;;;13.90;57.10;;;;;;6161794;23;20025;-83
2022/03/22 10:41:24;;;;;;;19.05;13.07;;;14.00;57.30;;;;;;6162090;23;20009;-79
2022/03/22 10:44:29;;;;;;;19.25;12.85;;;14.00;55.40;;;;;;6136408;23;20010;-79
2022/03/22 10:46:55;;;;;;;18.42;12.50;;;14.10;54.90;;;;;;6160375;23;20037;-82
2022/03/22 10:49:22;;;;;;;18.38;12.80;;;14.20;54.80;;;;;;6136978;23;20009;-80
2022/03/22 10:51:50;;;;;;;23.27;14.77;;;14.30;55.00;;;;;;6160778;23;20013;-82
2022/03/22 10:54:18;;;;;;;23.02;14.40;;;14.40;55.80;;;;;;6137319;23;20013;-80
2022/03/22 10:57:42;;;;;;;20.53;14.17;;;14.50;55.50;;;;;;6137065;23;19994;-81
2022/03/22 11:00:16;;;;;;;20.52;13.57;;;14.70;55.20;;;;;;6137157;23;20009;-78
2022/03/22 11:02:42;;;;;;;24.23;15.40;;;15.00;54.60;;;;;;6143712;23;20086;-79
2022/03/22 11:05:08;;;;;;;18.73;12.45;;;15.10;54.50;;;;;;6146886;23;19997;-80
2022/03/22 11:07:37;;;;;;;23.33;12.98;;;15.40;53.70;;;;;;6154590;23;20009;-80
2022/03/22 11:10:04;;;;;;;22.63;13.98;;;16.00;53.00;;;;;;6214605;23;19999;-81
2022/03/22 11:12:32;;;;;;;20.27;14.07;;;16.70;52.00;;;;;;6208741;23;20013;-81
2022/03/22 11:15:00;;;;;;;18.33;13.30;;;17.60;50.50;;;;;;6173201;23;19997;-80
2022/03/22 11:17:33;;;;;;;17.45;12.48;;;18.60;49.60;;;;;;6172006;23;20691;-82
2022/03/22 11:19:59;;;;;;;16.58;12.80;;;19.50;48.70;;;;;;6223151;23;20009;-81
2022/03/22 11:22:25;;;;;;;15.98;12.73;;;20.20;47.30;;;;;;6172323;23;20317;-81
2022/03/22 11:24:52;;;;;;;19.20;14.32;;;20.90;45.70;;;;;;6197158;23;20009;-80
2022/03/22 11:27:29;;;;;;;15.05;12.07;;;21.10;45.30;;;;;;6196937;23;20064;-81
2022/03/22 11:29:56;;;;;;;15.32;12.60;;;22.40;44.50;;;;;;6176980;23;20013;-83
2022/03/22 11:35:14;;;;;;;16.05;12.32;;;23.90;43.10;;;;;;6252326;23;20008;-84
2022/03/22 11:37:40;;;;;;;15.52;12.77;;;24.60;42.70;;;;;;6202358;23;20476;-83
2022/03/22 11:43:13;;;;;;;14.85;13.27;;;25.70;42.30;;;;;;6253072;23;20004;-83
2022/03/22 11:45:47;;;;;;;15.35;12.35;;;26.10;41.60;;;;;;6202545;23;20008;-81
2022/03/22 11:49:04;;;;;;;14.55;12.93;;;26.70;40.70;;;;;;6202848;23;20028;-81
2022/03/22 11:51:36;;;;;;;16.55;12.50;;;27.70;40.40;;;;;;6226324;23;20061;-81
2022/03/22 11:54:07;;;;;;;17.23;13.32;;;28.00;39.90;;;;;;6227004;23;20201;-84
2022/03/22 11:56:33;;;;;;;14.90;13.10;;;28.20;39.70;;;;;;6203486;23;20015;-82
2022/03/22 11:59:03;;;;;;;15.13;13.40;;;28.00;39.60;;;;;;6203707;23;20004;-82
2022/03/22 12:01:36;;;;;;;17.92;13.15;;;28.90;39.70;;;;;;6203257;22;20235;-85
2022/03/22 12:04:12;;;;;;;13.90;12.35;;;29.20;40.30;;;;;;6203623;23;20075;-82
2022/03/22 12:06:39;;;;;;;15.32;13.73;;;29.60;39.80;;;;;;6204647;23;20000;-83
2022/03/22 12:09:06;;;;;;;15.93;14.23;;;29.90;39.70;;;;;;6229567;23;20330;-84
2022/03/22 12:12:06;;;;;;;17.58;13.95;;;29.60;38.60;;;;;;6205455;23;20004;-84
2022/03/22 12:15:52;;;;;;;15.85;13.65;;;29.90;39.00;;;;;;6207043;23;20011;-84
2022/03/22 12:18:36;;;;;;;15.07;13.50;;;31.20;38.90;;;;;;6155941;23;20007;-84
2022/03/22 12:21:02;;;;;;;16.20;13.63;;;30.70;38.30;;;;;;6201168;23;20008;-87
2022/03/22 12:23:28;;;;;;;18.45;13.40;;;30.80;38.80;;;;;;6203575;23;20004;-83
2022/03/22 12:25:58;;;;;;;19.20;13.82;;;31.50;38.00;;;;;;6203250;23;20129;-86
2022/03/22 12:28:24;;;;;;;16.88;13.05;;;32.00;38.10;;;;;;6228856;23;20004;-85
2022/03/22 12:30:53;;;;;;;13.70;12.23;;;32.10;37.80;;;;;;6227775;23;20114;-84
2022/03/22 12:33:31;;;;;;;16.20;14.00;;;32.40;38.20;;;;;;6229145;23;20020;-85
2022/03/22 12:36:01;;;;;;;19.08;12.73;;;32.90;37.40;;;;;;6228415;23;20320;-85
2022/03/22 12:38:27;;;;;;;16.02;13.35;;;33.50;37.20;;;;;;6229323;23;20000;-84
2022/03/22 12:40:53;;;;;;;15.18;13.00;;;33.40;37.70;;;;;;6253862;23;20171;-83
2022/03/22 12:43:19;;;;;;;14.70;12.57;;;33.90;36.50;;;;;;6229291;23;20004;-84
2022/03/22 12:46:14;;;;;;;16.13;13.13;;;34.60;36.30;;;;;;6247313;23;20031;-86
2022/03/22 12:48:40;;;;;;;14.70;13.15;;;34.20;36.60;;;;;;6229227;23;20030;-84
2022/03/22 12:51:08;;;;;;;13.90;12.45;;;34.20;36.30;;;;;;6254303;23;20004;-85
2022/03/22 13:05:51;;;;;;;14.20;12.45;;;35.00;35.50;;;;;;6051971;23;20089;-84
2022/03/22 13:11:44;;;;;;;14.93;12.35;;;35.30;35.40;;;;;;6075742;23;20011;-86
2022/03/22 13:21:09;;;;;;;15.48;12.10;;;35.70;35.10;;;;;;6075004;23;20112;-85
2022/03/22 13:35:19;;;;;;;14.73;12.52;;;36.00;34.60;;;;;;6113136;23;20017;-83
2022/03/22 13:37:47;;;;;;;13.20;11.90;;;36.10;34.20;;;;;;6159320;23;20001;-84
2022/03/22 13:40:38;;;;;;;15.20;12.38;;;36.40;34.20;;;;;;6141978;23;20009;-86
2022/03/22 13:43:07;;;;;;;14.43;12.45;;;36.20;34.30;;;;;;6142110;23;20084;-84
2022/03/22 13:45:35;;;;;;;13.57;12.18;;;36.80;34.30;;;;;;6142072;23;20024;-82
2022/03/22 13:48:12;;;;;;;12.75;11.45;;;37.10;34.20;;;;;;6142142;23;20009;-84
2022/03/22 13:50:39;;;;;;;15.60;11.98;;;36.60;33.70;;;;;;6142259;23;20005;-86
2022/03/22 13:53:07;;;;;;;13.40;12.00;;;37.60;34.20;;;;;;6141876;23;20024;-84
2022/03/22 13:55:36;;;;;;;15.32;11.88;;;37.20;34.00;;;;;;6166716;23;20322;-84
2022/03/22 13:58:09;;;;;;;12.48;11.18;;;37.40;33.90;;;;;;6166158;23;20246;-84
2022/03/22 14:00:34;;;;;;;16.40;12.02;;;37.30;33.90;;;;;;6166391;23;20009;-82
2022/03/22 14:03:00;;;;;;;13.23;11.93;;;37.40;33.70;;;;;;6142745;23;20007;-85
2022/03/22 14:05:27;;;;;;;12.55;11.05;;;37.60;33.60;;;;;;6142683;23;20279;-87
2022/03/22 14:07:56;;;;;;;12.48;11.27;;;38.00;33.40;;;;;;6143053;23;20005;-87
2022/03/22 14:10:51;;;;;;;12.13;10.90;;;37.50;33.30;;;;;;6142411;23;20005;-85
2022/03/22 14:13:42;;;;;;;20.70;12.50;;;37.70;33.90;;;;;;6223604;23;20043;-86
2022/03/22 14:16:13;;;;;;;13.93;12.13;;;37.40;33.10;;;;;;6196738;23;20012;-84
2022/03/22 14:18:41;;;;;;;12.32;11.10;;;37.10;33.70;;;;;;6173223;23;20172;-82
2022/03/22 14:21:07;;;;;;;13.52;11.57;;;37.40;34.00;;;;;;6197174;23;20163;-83
2022/03/22 14:23:33;;;;;;;13.60;12.10;;;37.60;33.40;;;;;;6197749;23;20286;-83
2022/03/22 14:26:00;;;;;;;13.10;11.73;;;37.10;33.70;;;;;;6173437;23;20073;-81
2022/03/22 14:28:26;;;;;;;13.30;11.95;;;37.60;33.40;;;;;;6226751;23;20195;-84
2022/03/22 14:35:46;;;;;;;12.77;10.45;;;39.20;33.20;;;;;;6254828;23;20000;-83
2022/03/22 14:36:55;;;;;;;12.70;11.48;;;39.40;33.20;;;;;;6255538;23;20022;-83
2022/03/22 14:39:29;;;;;;;12.93;11.32;;;39.40;32.90;;;;;;6254573;23;20282;-82
2022/03/22 14:42:03;;;;;;;13.75;11.30;;;38.30;32.90;;;;;;6255792;23;20042;-83
2022/03/22 14:44:34;;;;;;;12.82;11.63;;;38.50;33.50;;;;;;6198753;23;20006;-84
2022/03/22 14:47:04;;;;;;;15.60;12.00;;;38.30;33.30;;;;;;6222602;22;20017;-84
2022/03/22 14:49:30;;;;;;;14.25;12.23;;;37.10;33.20;;;;;;6203499;23;20008;-84
2022/03/22 15:08:12;;;;;;;17.83;11.68;;;37.70;33.00;;;;;;6239701;23;20043;-83
2022/03/22 15:10:56;;;;;;;12.68;11.38;;;37.60;33.20;;;;;;6206754;23;20017;-83
2022/03/22 15:22:08;;;;;;;;;;;;;;;;;;;;;
2022/03/22 15:25:20;;;;;;;14.45;11.60;;;38.00;33.20;;;;;;6223032;23;20044;-83
2022/03/22 16:20:09;;;;;;;16.60;11.98;;;33.40;36.10;;;;;;6046913;23;20239;-83
2022/03/22 16:23:01;;;;;;;14.88;12.13;;;32.60;36.00;;;;;;6024874;23;20015;-84
2022/03/22 16:25:27;;;;;;;13.70;12.10;;;32.40;36.50;;;;;;6021898;23;20297;-83
2022/03/22 16:28:10;;;;;;;14.73;12.05;;;32.50;36.20;;;;;;6046806;23;20205;-84
2022/03/22 16:30:39;;;;;;;15.32;12.55;;;32.50;36.90;;;;;;6008441;23;20023;-83
2022/03/22 16:39:21;;;;;;;15.93;13.27;;;30.60;38.40;;;;;;6046614;23;20007;-83
2022/03/22 16:49:22;;;;;;;15.80;12.68;;;26.10;40.80;;;;;;6052188;23;20011;-83
2022/03/22 16:51:51;;;;;;;16.63;12.90;;;25.10;41.50;;;;;;6080117;23;20022;-83
2022/03/22 16:54:18;;;;;;;14.90;12.63;;;24.30;43.20;;;;;;6080634;23;20143;-81
2022/03/22 16:56:44;;;;;;;20.48;13.80;;;23.30;43.80;;;;;;6110835;23;20010;-84
2022/03/22 16:59:26;;;;;;;18.08;12.82;;;22.70;44.40;;;;;;6081732;23;20003;-82
2022/03/22 17:01:58;;;;;;;18.45;13.43;;;22.10;45.40;;;;;;6084090;23;20014;-80
2022/03/22 17:08:04;;;;;;;17.63;12.10;;;21.20;46.80;;;;;;6108643;23;20010;-82
2022/03/22 17:10:49;;;;;;;18.58;13.80;;;21.00;48.40;;;;;;6085307;23;20010;-81
2022/03/22 17:13:18;;;;;;;23.05;14.05;;;20.80;47.40;;;;;;6080052;23;20111;-82
2022/03/22 17:15:57;;;;;;;16.77;13.18;;;20.60;47.00;;;;;;6100778;23;20065;-82
2022/03/22 17:18:25;;;;;;;17.08;13.27;;;20.30;48.50;;;;;;6106405;23;20280;-81
2022/03/22 17:21:23;;;;;;;17.88;13.60;;;20.10;48.50;;;;;;6117358;23;20059;-83
2022/03/22 17:23:53;;;;;;;;;;;19.80;48.10;;;;;;6169076;23;20000;-82
2022/03/22 17:26:21;;;;;;;15.90;12.82;;;19.60;49.50;;;;;;6144330;23;19900;-85
2022/03/22 17:28:48;;;;;;;21.05;13.85;;;19.40;49.70;;;;;;6169070;23;20150;-82
2022/03/22 17:31:27;;;;;;;19.95;14.63;;;19.20;50.80;;;;;;6165953;23;20021;-81
2022/03/22 17:34:18;;;;;;;18.80;13.13;;;19.00;49.90;;;;;;6168901;23;20011;-83
2022/03/22 17:36:46;;;;;;;20.08;14.43;;;18.90;50.90;;;;;;6144108;23;20032;-82
2022/03/22 17:39:12;;;;;;;19.08;14.10;;;18.60;50.70;;;;;;6168938;23;20012;-81
2022/03/22 17:41:39;;;;;;;21.52;15.40;;;18.20;50.60;;;;;;6170182;23;20005;-82
2022/03/22 17:44:19;;;;;;;21.80;14.88;;;17.90;51.20;;;;;;6169947;23;20016;-81
2022/03/22 17:46:46;;;;;;;18.95;14.30;;;17.60;52.80;;;;;;6109588;23;20391;-80
2022/03/22 17:49:13;;;;;;;18.98;14.10;;;17.40;52.80;;;;;;6109151;23;20010;-82
2022/03/22 17:51:39;;;;;;;20.40;14.02;;;17.40;53.10;;;;;;6129876;23;20015;-80
2022/03/22 17:54:07;;;;;;;23.38;14.85;;;17.30;53.10;;;;;;6103749;23;20008;-79
2022/03/22 17:56:34;;;;;;;20.20;14.55;;;17.00;52.80;;;;;;6105039;23;20002;-81
2022/03/22 17:59:00;;;;;;;20.55;15.07;;;16.70;53.50;;;;;;6105970;23;20185;-79
2022/03/22 18:01:26;;;;;;;21.02;14.13;;;16.70;54.50;;;;;;6079240;23;20014;-82
2022/03/22 18:03:52;;;;;;;21.30;13.95;;;16.70;54.80;;;;;;6080949;23;20014;-82
2022/03/22 18:06:18;;;;;;;23.25;14.68;;;16.60;54.80;;;;;;6081113;23;20006;-84
2022/03/22 18:08:44;;;;;;;19.52;14.57;;;16.60;54.90;;;;;;6105589;23;20053;-78
2022/03/22 18:14:06;;;;;;;25.35;15.27;;;16.30;55.90;;;;;;6054556;23;20009;-84
2022/03/22 18:16:31;;;;;;;21.05;14.80;;;16.00;56.60;;;;;;6080569;23;20006;-79
2022/03/22 18:18:57;;;;;;;18.48;14.57;;;15.90;56.40;;;;;;6139032;23;20113;-80
2022/03/22 18:21:23;;;;;;;24.25;16.02;;;15.80;57.00;;;;;;6163749;23;20028;-80
2022/03/22 18:23:50;;;;;;;28.95;18.27;;;15.70;56.60;;;;;;6120011;23;20060;-79
2022/03/22 18:26:21;;;;;;;23.67;15.45;;;15.50;57.40;;;;;;6162955;23;20058;-80
2022/03/22 18:28:47;;;;;;;23.42;15.05;;;15.30;58.00;;;;;;6140981;23;20004;-78
2022/03/22 18:31:14;;;;;;;23.67;15.90;;;15.30;58.40;;;;;;6172639;23;20028;-77
2022/03/22 18:33:40;;;;;;;23.42;15.80;;;15.10;58.20;;;;;;6226078;23;20008;-79
2022/03/22 18:36:09;;;;;;;22.90;16.45;;;14.80;58.80;;;;;;6193240;23;20031;-80
2022/03/22 18:38:34;;;;;;;;;;;14.60;60.20;;;;;;6168612;23;20009;-76
2022/03/22 18:41:02;;;;;;;23.85;15.73;;;14.40;60.10;;;;;;6163685;23;19912;-81
2022/03/22 18:43:29;;;;;;;30.55;17.33;;;14.40;60.20;;;;;;6139884;23;20057;-84
2022/03/22 18:45:56;;;;;;;25.23;16.10;;;14.20;60.40;;;;;;6139183;23;20060;-84
2022/03/22 18:48:22;;;;;;;23.67;15.52;;;13.90;60.80;;;;;;6141105;23;20017;-83
2022/03/22 18:50:48;;;;;;;24.67;17.05;;;13.70;61.60;;;;;;6165716;23;20207;-83
2022/03/22 18:53:14;;;;;;;23.80;16.48;;;13.40;62.40;;;;;;6139929;23;20358;-80
2022/03/22 18:55:40;;;;;;;22.90;15.55;;;13.20;63.00;;;;;;6165496;23;20005;-80
2022/03/22 18:58:08;;;;;;;28.05;18.98;;;13.30;63.50;;;;;;6170789;23;20036;-79
2022/03/22 19:00:34;;;;;;;28.98;18.50;;;13.20;63.50;;;;;;6173625;23;20014;-80
2022/03/22 19:03:00;;;;;;;27.25;17.63;;;13.10;63.50;;;;;;6180389;23;20041;-84
2022/03/22 19:05:28;;;;;;;27.33;17.33;;;13.10;63.90;;;;;;6156733;23;19997;-81
2022/03/22 19:07:56;;;;;;;25.67;16.48;;;13.00;63.90;;;;;;6206885;23;20013;-81
2022/03/22 19:10:23;;;;;;;23.67;15.50;;;12.80;63.70;;;;;;6170411;23;20188;-81
2022/03/22 19:12:51;;;;;;;25.83;15.95;;;12.70;63.90;;;;;;6197030;23;20127;-84
2022/03/22 19:15:17;;;;;;;26.63;17.73;;;12.70;64.50;;;;;;6169036;23;20013;-82
2022/03/22 19:17:51;;;;;;;24.90;16.85;;;12.60;64.40;;;;;;6171015;23;20034;-82
2022/03/22 19:20:22;;;;;;;26.73;16.55;;;12.50;64.90;;;;;;6169923;23;20175;-84
2022/03/22 19:22:55;;;;;;;27.73;16.90;;;12.50;65.10;;;;;;6171190;23;20060;-84
2022/03/22 19:25:48;;;;;;;35.75;20.95;;;12.40;65.60;;;;;;6169027;23;20286;-81
2022/03/22 19:28:23;;;;;;;30.85;18.90;;;12.40;65.50;;;;;;6170397;23;20047;-84
2022/03/22 19:33:40;;;;;;;24.98;16.27;;;12.20;65.70;;;;;;6168628;23;20080;-84
2022/03/22 19:36:06;;;;;;;23.95;16.33;;;12.10;66.30;;;;;;6134547;23;20295;-84
2022/03/22 19:38:32;;;;;;;25.10;17.50;;;12.10;66.30;;;;;;6109563;23;20006;-84
2022/03/22 19:41:00;;;;;;;28.60;18.40;;;12.20;66.10;;;;;;6110098;23;20030;-84
2022/03/22 19:43:26;;;;;;;22.77;16.42;;;12.10;66.20;;;;;;6134276;23;20010;-85
2022/03/22 19:45:53;;;;;;;26.92;17.25;;;12.00;66.40;;;;;;6134859;23;20029;-85
2022/03/22 19:48:19;;;;;;;26.20;17.67;;;12.00;66.70;;;;;;6114242;23;20327;-85
2022/03/22 19:50:53;;;;;;;34.95;21.15;;;12.00;67.00;;;;;;6108964;23;20014;-84
2022/03/22 19:53:19;;;;;;;30.10;19.73;;;11.90;67.30;;;;;;6084865;23;20013;-87
2022/03/22 19:55:46;;;;;;;29.75;17.85;;;11.80;67.90;;;;;;6108913;23;20077;-84
2022/03/22 19:58:13;;;;;;;29.75;18.30;;;11.70;68.30;;;;;;6110330;23;20004;-83
2022/03/22 20:00:42;;;;;;;28.38;16.98;;;11.60;68.60;;;;;;6110140;23;20013;-83
2022/03/22 20:03:08;;;;;;;32.95;20.08;;;11.50;68.70;;;;;;6111967;23;20005;-84
2022/03/22 20:05:34;;;;;;;25.90;17.45;;;11.30;69.10;;;;;;6136141;23;20070;-84
2022/03/22 20:08:01;;;;;;;27.23;16.98;;;11.20;70.00;;;;;;6164391;23;20184;-84
2022/03/22 20:10:27;;;;;;;28.20;17.45;;;11.10;70.40;;;;;;6170195;23;20004;-84
2022/03/22 20:12:53;;;;;;;30.67;18.27;;;11.00;70.80;;;;;;6170123;23;20068;-84
2022/03/22 20:15:19;;;;;;;29.13;16.83;;;10.90;70.80;;;;;;6170384;23;20005;-85
2022/03/22 20:17:47;;;;;;;27.25;17.67;;;10.80;71.10;;;;;;6170436;23;20020;-86
2022/03/22 20:20:14;;;;;;;27.55;17.85;;;10.70;71.50;;;;;;6170575;23;20048;-86
2022/03/22 20:22:40;;;;;;;28.17;17.60;;;10.60;71.70;;;;;;6171004;23;20009;-86
2022/03/22 20:25:08;;;;;;;27.58;17.08;;;10.50;72.20;;;;;;6172404;23;20009;-84
2022/03/22 20:27:37;;;;;;;30.33;16.63;;;10.30;72.30;;;;;;6194858;23;20063;-85
2022/03/22 20:30:05;;;;;;;25.75;16.38;;;10.20;72.10;;;;;;6169243;23;20020;-84
2022/03/22 20:32:31;;;;;;;26.83;16.30;;;10.10;72.10;;;;;;6169684;23;20012;-82
2022/03/22 20:34:56;;;;;;;25.50;16.33;;;10.00;72.10;;;;;;6171853;23;19993;-84
2022/03/22 20:37:24;;;;;;;28.33;15.95;;;9.90;72.60;;;;;;6169998;23;20060;-81
2022/03/22 20:39:50;;;;;;;26.17;15.75;;;9.80;72.80;;;;;;6194404;23;20183;-81
2022/03/22 20:42:16;;;;;;;28.35;16.15;;;9.70;73.70;;;;;;6169598;23;20008;-82
2022/03/22 20:44:44;;;;;;;29.27;16.80;;;9.60;73.30;;;;;;6171065;23;20072;-81
2022/03/22 20:47:10;;;;;;;27.45;16.08;;;9.60;73.00;;;;;;6169507;23;20071;-84
2022/03/22 20:49:46;;;;;;;28.57;16.17;;;9.40;73.20;;;;;;6169766;23;20056;-82
2022/03/22 20:52:53;;;;;;;27.70;16.55;;;9.50;73.90;;;;;;6195675;23;20404;-82
2022/03/22 20:55:22;;;;;;;28.13;17.60;;;9.50;74.10;;;;;;6156920;23;20152;-85
2022/03/22 21:00:43;;;;;;;30.98;17.55;;;9.60;74.80;;;;;;6168853;23;20239;-83
2022/03/22 21:03:15;;;;;;;30.13;17.92;;;9.50;75.00;;;;;;6169375;23;20017;-81
2022/03/22 21:05:44;;;;;;;29.02;17.20;;;9.40;75.50;;;;;;6169573;23;20199;-84
2022/03/22 21:08:10;;;;;;;25.00;16.90;;;9.30;75.60;;;;;;6170910;23;20009;-80
2022/03/22 21:10:36;;;;;;;27.65;16.92;;;9.20;75.40;;;;;;6169826;23;20012;-81
2022/03/22 21:13:03;;;;;;;28.65;16.55;;;9.00;75.40;;;;;;6194923;23;20001;-86
2022/03/22 21:15:29;;;;;;;30.65;17.55;;;9.00;75.60;;;;;;6194287;23;20013;-88
2022/03/22 21:18:05;;;;;;;31.50;18.38;;;9.10;75.60;;;;;;6168764;23;19993;-84
2022/03/22 21:23:48;;;;;;;;;;;;;;;;;;;;;
2022/03/22 21:26:14;;;;;;;30.10;17.42;;;9.00;76.20;;;;;;6194158;23;20283;-81
2022/03/22 21:28:41;;;;;;;31.20;18.10;;;9.00;76.50;;;;;;6167329;23;20356;-84
2022/03/22 21:31:12;;;;;;;29.65;17.70;;;8.90;77.00;;;;;;6193219;23;20020;-82
2022/03/22 21:33:39;;;;;;;30.85;18.42;;;8.90;76.50;;;;;;6167670;23;20336;-83
2022/03/22 21:36:42;;;;;;;29.00;17.25;;;8.80;76.70;;;;;;6168404;23;20032;-89
2022/03/22 21:39:08;;;;;;;31.63;19.23;;;8.70;76.80;;;;;;6168364;23;20008;-83
2022/03/22 21:42:23;;;;;;;28.10;17.08;;;8.50;77.80;;;;;;6168193;23;20013;-83
2022/03/22 21:44:50;;;;;;;27.05;15.02;;;8.40;77.70;;;;;;6168288;23;20183;-85
2022/03/22 21:47:21;;;;;;;26.27;15.98;;;8.30;77.10;;;;;;6193371;23;20020;-81
2022/03/22 21:49:47;;;;;;;28.88;16.35;;;8.30;77.90;;;;;;6161079;23;20009;-82
2022/03/22 21:52:12;;;;;;;26.75;15.68;;;8.20;78.30;;;;;;6163444;23;20002;-81
2022/03/22 21:54:38;;;;;;;23.70;14.93;;;8.20;78.00;;;;;;6162392;23;20235;-83
2022/03/22 21:57:04;;;;;;;24.65;15.65;;;8.20;77.50;;;;;;6163738;23;20002;-83
2022/03/22 21:59:30;;;;;;;22.10;14.35;;;8.10;78.20;;;;;;6186745;23;20010;-79
2022/03/22 22:01:55;;;;;;;25.50;13.63;;;8.00;77.90;;;;;;6137162;23;20114;-84
2022/03/22 22:04:22;;;;;;;20.92;13.30;;;7.90;76.90;;;;;;6164023;23;20318;-82
2022/03/22 22:06:48;;;;;;;23.83;12.10;;;7.80;76.60;;;;;;6162513;23;20064;-81
2022/03/22 22:09:14;;;;;;;22.10;11.88;;;7.70;75.90;;;;;;6139097;23;19997;-80